createdAt,value
2019-01-25T00:00:28.897Z,1.09
2019-01-25T00:03:00.269Z,1.06
2019-01-25T00:05:28.330Z,1.04
2019-01-25T00:07:56.395Z,1.02
2019-01-25T00:10:24.493Z,0.99
2019-01-25T00:12:52.531Z,0.95
2019-01-25T00:15:22.319Z,0.92
2019-01-25T00:17:51.893Z,0.88
2019-01-25T00:20:21.445Z,0.83
2019-01-25T00:22:49.618Z,0.78
2019-01-25T00:25:17.672Z,0.74
2019-01-25T00:27:45.751Z,0.69
2019-01-25T00:30:15.925Z,0.66
2019-01-25T00:32:45.065Z,0.61
2019-01-25T00:35:13.128Z,0.56
2019-01-25T00:37:41.859Z,0.52
2019-01-25T00:40:11.715Z,0.47
2019-01-25T00:42:39.887Z,0.42
2019-01-25T00:45:09.335Z,0.35
2019-01-25T00:47:37.699Z,0.25
2019-01-25T00:50:11.508Z,0.15
2019-01-25T00:52:39.662Z,0.09
2019-01-25T00:55:08.673Z,0.06
2019-01-25T00:57:36.762Z,0.05
2019-01-25T01:00:11.800Z,0.05
2019-01-25T01:02:40.225Z,0.06
2019-01-25T01:05:08.595Z,0.05
2019-01-25T01:07:36.716Z,0.05
2019-01-25T01:10:06.016Z,0.02
2019-01-25T01:12:34.061Z,-0.02
2019-01-25T01:15:02.758Z,-0.03
2019-01-25T01:17:31.082Z,-0.04
2019-01-25T01:19:59.149Z,-0.04
2019-01-25T01:22:27.289Z,-0.03
2019-01-25T01:24:55.343Z,-0.01
2019-01-25T01:27:23.461Z,0.02
2019-01-25T01:29:54.554Z,0.03
2019-01-25T01:32:22.693Z,0.05
2019-01-25T01:34:50.777Z,0.04
2019-01-25T01:37:21.371Z,0.03
2019-01-25T01:39:49.779Z,0.01
2019-01-25T01:42:17.807Z,-0.03
2019-01-25T01:44:45.878Z,-0.05
2019-01-25T01:47:13.937Z,-0.09
2019-01-25T01:49:42.096Z,-0.10
2019-01-25T01:52:10.140Z,-0.09
2019-01-25T01:54:38.205Z,-0.06
2019-01-25T01:57:06.279Z,-0.04
2019-01-25T01:59:34.341Z,-0.04
2019-01-25T02:02:03.008Z,-0.06
2019-01-25T02:04:31.186Z,-0.07
2019-01-25T02:06:59.235Z,-0.08
2019-01-25T02:09:27.284Z,-0.09
2019-01-25T02:11:55.358Z,-0.10
2019-01-25T02:14:23.454Z,-0.09
2019-01-25T02:16:51.510Z,-0.10
2019-01-25T02:19:20.105Z,-0.12
2019-01-25T02:21:48.155Z,-0.17
2019-01-25T02:24:16.202Z,-0.19
2019-01-25T02:26:44.257Z,-0.22
2019-01-25T02:29:12.260Z,-0.22
2019-01-25T02:31:40.320Z,-0.18
2019-01-25T02:34:08.352Z,-0.13
2019-01-25T02:36:36.404Z,-0.09
2019-01-25T02:39:07.352Z,-0.06
2019-01-25T02:41:35.432Z,-0.02
2019-01-25T02:44:04.183Z,0.03
2019-01-25T02:46:32.246Z,0.05
2019-01-25T02:49:00.350Z,0.07
2019-01-25T02:51:28.408Z,0.06
2019-01-25T02:53:56.456Z,0.08
2019-01-25T02:56:24.634Z,0.09
2019-01-25T02:58:52.720Z,0.08
2019-01-25T03:01:20.777Z,0.08
2019-01-25T03:03:48.814Z,0.06
2019-01-25T03:06:16.971Z,0.04
2019-01-25T03:08:46.651Z,0.04
2019-01-25T03:11:14.891Z,0.03
2019-01-25T03:13:43.254Z,0.01
2019-01-25T03:16:11.336Z,-0.03
2019-01-25T03:18:39.352Z,-0.05
2019-01-25T03:21:07.402Z,-0.06
2019-01-25T03:23:35.476Z,-0.06
2019-01-25T03:26:03.610Z,-0.05
2019-01-25T03:28:31.921Z,-0.05
2019-01-25T03:31:01.089Z,-0.07
2019-01-25T03:33:29.154Z,-0.06
2019-01-25T03:35:57.265Z,-0.05
2019-01-25T03:38:25.440Z,-0.03
2019-01-25T03:40:55.091Z,0.00
2019-01-25T03:43:23.584Z,0.03
2019-01-25T03:45:51.637Z,0.05
2019-01-25T03:48:21.737Z,0.04
2019-01-25T03:50:49.841Z,0.05
2019-01-25T03:53:19.225Z,0.05
2019-01-25T03:55:47.268Z,0.06
2019-01-25T03:58:15.311Z,0.07
2019-01-25T04:00:43.377Z,0.07
2019-01-25T04:03:11.425Z,0.07
2019-01-25T04:05:39.574Z,0.09
2019-01-25T04:08:07.755Z,0.11
2019-01-25T04:10:35.841Z,0.13
2019-01-25T04:13:04.206Z,0.13
2019-01-25T04:15:34.068Z,0.14
2019-01-25T04:18:02.462Z,0.15
2019-01-25T04:20:30.499Z,0.17
2019-01-25T04:22:58.578Z,0.17
2019-01-25T04:25:26.849Z,0.19
2019-01-25T04:27:54.937Z,0.19
2019-01-25T04:30:25.820Z,0.20
2019-01-25T04:32:54.186Z,0.18
2019-01-25T04:35:22.348Z,0.18
2019-01-25T04:37:50.727Z,0.20
2019-01-25T04:40:18.995Z,0.19
2019-01-25T04:42:47.478Z,0.17
2019-01-25T04:45:17.684Z,0.18
2019-01-25T04:47:45.830Z,0.15
2019-01-25T04:50:19.806Z,0.13
2019-01-25T04:52:48.338Z,0.12
2019-01-25T04:55:23.600Z,0.11
2019-01-25T04:57:51.700Z,0.09
2019-01-25T05:00:21.217Z,0.08
2019-01-25T05:02:57.447Z,0.08
2019-01-25T05:05:26.076Z,0.09
2019-01-25T05:08:04.648Z,0.09
2019-01-25T05:10:32.702Z,0.10
2019-01-25T05:13:00.810Z,0.10
2019-01-25T05:15:29.859Z,0.09
2019-01-25T05:17:59.021Z,0.09
2019-01-25T05:20:28.207Z,0.08
2019-01-25T05:22:57.987Z,0.06
2019-01-25T05:25:26.917Z,0.05
2019-01-25T05:27:55.061Z,0.05
2019-01-25T05:30:24.062Z,0.07
2019-01-25T05:32:52.139Z,0.05
2019-01-25T05:35:21.869Z,0.03
2019-01-25T05:37:49.949Z,0.04
2019-01-25T05:40:23.599Z,0.05
2019-01-25T05:42:51.804Z,0.05
2019-01-25T05:45:21.665Z,0.04
2019-01-25T05:47:49.747Z,0.04
2019-01-25T05:50:17.779Z,0.04
2019-01-25T05:52:46.945Z,0.03
2019-01-25T05:55:17.546Z,0.04
2019-01-25T05:57:45.950Z,0.03
2019-01-25T06:00:17.742Z,0.03
2019-01-25T06:02:45.877Z,0.03
2019-01-25T06:05:14.016Z,0.06
2019-01-25T06:07:42.108Z,0.07
2019-01-25T06:10:10.760Z,0.06
2019-01-25T06:12:39.131Z,0.04
2019-01-25T06:15:07.788Z,0.04
2019-01-25T06:17:35.939Z,0.03
2019-01-25T06:20:05.751Z,0.02
2019-01-25T06:22:33.790Z,0.04
2019-01-25T06:25:01.946Z,0.08
2019-01-25T06:27:36.083Z,0.09
2019-01-25T06:30:10.049Z,0.09
2019-01-25T06:32:38.168Z,0.10
2019-01-25T06:35:06.394Z,0.11
2019-01-25T06:37:34.433Z,0.12
2019-01-25T06:40:03.392Z,0.12
2019-01-25T06:42:31.412Z,0.15
2019-01-25T06:44:59.592Z,0.18
2019-01-25T06:47:27.663Z,0.20
2019-01-25T06:49:55.695Z,0.20
2019-01-25T06:52:23.739Z,0.21
2019-01-25T06:54:51.797Z,0.21
2019-01-25T06:57:26.178Z,0.20
2019-01-25T06:59:54.292Z,0.18
2019-01-25T07:02:27.621Z,0.19
2019-01-25T07:04:55.667Z,0.20
2019-01-25T07:07:28.619Z,0.23
2019-01-25T07:09:56.676Z,0.22
2019-01-25T07:12:24.733Z,0.22
2019-01-25T07:14:52.795Z,0.24
2019-01-25T07:17:22.232Z,0.24
2019-01-25T07:19:50.299Z,0.21
2019-01-25T07:22:18.365Z,0.20
2019-01-25T07:24:46.809Z,0.19
2019-01-25T07:27:14.928Z,0.20
2019-01-25T07:29:42.986Z,0.21
2019-01-25T07:32:11.048Z,0.23
2019-01-25T07:34:39.129Z,0.26
2019-01-25T07:37:07.259Z,0.28
2019-01-25T07:39:35.371Z,0.28
2019-01-25T07:42:03.436Z,0.27
2019-01-25T07:44:31.531Z,0.28
2019-01-25T07:46:59.792Z,0.30
2019-01-25T07:49:28.992Z,0.30
2019-01-25T07:51:57.065Z,0.26
2019-01-25T07:54:25.108Z,0.23
2019-01-25T07:56:53.188Z,0.24
2019-01-25T07:59:22.826Z,0.26
2019-01-25T08:01:51.045Z,0.27
2019-01-25T08:04:22.019Z,0.30
2019-01-25T08:06:50.320Z,0.29
2019-01-25T08:09:18.370Z,0.28
2019-01-25T08:11:46.418Z,0.31
2019-01-25T08:14:14.473Z,0.35
2019-01-25T08:16:42.625Z,0.39
2019-01-25T08:19:10.859Z,0.41
2019-01-25T08:21:39.087Z,0.39
2019-01-25T08:24:07.212Z,0.40
2019-01-25T08:26:35.322Z,0.42
2019-01-25T08:29:04.569Z,0.46
2019-01-25T08:31:32.788Z,0.53
2019-01-25T08:34:01.139Z,0.58
2019-01-25T08:36:31.087Z,0.62
2019-01-25T08:38:59.143Z,0.66
2019-01-25T08:41:27.257Z,0.70
2019-01-25T08:43:55.430Z,0.72
2019-01-25T08:46:23.473Z,0.72
2019-01-25T08:48:51.898Z,0.73
2019-01-25T08:51:20.023Z,0.77
2019-01-25T08:53:48.601Z,0.80
2019-01-25T08:56:16.757Z,0.86
2019-01-25T08:58:45.825Z,0.90
2019-01-25T09:01:14.198Z,0.96
2019-01-25T09:03:42.370Z,1.02
2019-01-25T09:06:10.435Z,1.08
2019-01-25T09:08:38.517Z,1.12
2019-01-25T09:11:06.577Z,1.16
2019-01-25T09:13:35.762Z,1.23
2019-01-25T09:16:04.183Z,1.28
2019-01-25T09:18:33.572Z,1.30
2019-01-25T09:21:01.636Z,1.33
2019-01-25T09:23:29.696Z,1.36
2019-01-25T09:26:00.995Z,1.33
2019-01-25T09:28:29.543Z,1.37
2019-01-25T09:30:57.624Z,1.40
2019-01-25T09:33:25.913Z,1.43
2019-01-25T09:35:54.305Z,1.46
2019-01-25T09:38:22.362Z,1.49
2019-01-25T09:40:50.447Z,1.50
2019-01-25T09:43:18.900Z,1.52
2019-01-25T09:45:46.951Z,1.55
2019-01-25T09:48:14.992Z,1.59
2019-01-25T09:50:43.227Z,1.62
2019-01-25T09:53:12.738Z,1.66
2019-01-25T09:55:42.255Z,1.65
2019-01-25T09:58:13.823Z,1.62
2019-01-25T10:00:58.979Z,1.63
2019-01-25T10:03:27.030Z,1.64
2019-01-25T10:05:55.115Z,1.64
2019-01-25T10:08:23.192Z,1.65
2019-01-25T10:10:51.229Z,1.67
2019-01-25T10:13:19.290Z,1.70
2019-01-25T10:15:47.339Z,1.75
2019-01-25T10:18:15.446Z,1.80
2019-01-25T10:20:43.529Z,1.86
2019-01-25T10:23:11.530Z,1.89
2019-01-25T10:25:39.577Z,1.95
2019-01-25T10:28:07.627Z,2.01
2019-01-25T10:30:35.631Z,2.04
2019-01-25T10:33:03.785Z,2.07
2019-01-25T10:35:31.956Z,2.12
2019-01-25T10:37:59.999Z,2.16
2019-01-25T10:40:28.067Z,2.19
2019-01-25T10:42:56.148Z,2.23
2019-01-25T10:45:29.493Z,2.28
2019-01-25T10:47:57.596Z,2.32
2019-01-25T10:50:25.647Z,2.38
2019-01-25T10:52:53.756Z,2.42
2019-01-25T10:55:21.825Z,2.43
2019-01-25T10:57:51.513Z,2.46
2019-01-25T11:00:19.968Z,2.49
2019-01-25T11:02:48.075Z,2.53
2019-01-25T11:05:19.426Z,2.54
2019-01-25T11:07:48.563Z,2.58
2019-01-25T11:10:16.873Z,2.61
2019-01-25T11:12:44.969Z,2.65
2019-01-25T11:15:17.508Z,2.68
2019-01-25T11:17:45.699Z,2.68
2019-01-25T11:20:17.350Z,2.67
2019-01-25T11:22:46.646Z,2.67
2019-01-25T11:25:26.037Z,2.66
2019-01-25T11:27:54.554Z,2.67
2019-01-25T11:30:22.686Z,2.71
2019-01-25T11:32:50.777Z,2.77
2019-01-25T11:35:18.805Z,2.80
2019-01-25T11:37:46.921Z,2.81
2019-01-25T11:40:27.219Z,2.82
2019-01-25T11:42:55.810Z,2.86
2019-01-25T11:45:25.261Z,2.89
2019-01-25T11:47:53.350Z,2.89
2019-01-25T11:50:21.519Z,2.92
2019-01-25T11:52:49.597Z,2.95
2019-01-25T11:55:18.308Z,2.97
2019-01-25T11:57:46.792Z,2.99
2019-01-25T12:00:21.664Z,3.00
2019-01-25T12:02:49.913Z,3.00
2019-01-25T12:05:20.859Z,3.02
2019-01-25T12:07:49.259Z,3.05
2019-01-25T12:10:20.798Z,3.07
2019-01-25T12:12:48.879Z,3.06
2019-01-25T12:15:18.739Z,3.06
2019-01-25T12:17:46.808Z,3.06
2019-01-25T12:20:23.988Z,3.07
2019-01-25T12:22:52.155Z,3.05
2019-01-25T12:25:20.215Z,3.04
2019-01-25T12:27:48.383Z,3.08
2019-01-25T12:30:37.898Z,3.12
2019-01-25T12:33:06.703Z,3.16
2019-01-25T12:35:38.072Z,3.21
2019-01-25T12:38:06.267Z,3.23
2019-01-25T12:40:34.379Z,3.26
2019-01-25T12:43:03.311Z,3.32
2019-01-25T12:45:31.597Z,3.34
2019-01-25T12:47:59.785Z,3.38
2019-01-25T12:50:57.611Z,3.40
2019-01-25T12:53:26.996Z,3.43
2019-01-25T12:55:55.071Z,3.42
2019-01-25T12:58:23.232Z,3.38
2019-01-25T13:00:51.935Z,3.39
2019-01-25T13:03:20.058Z,3.39
2019-01-25T13:05:48.210Z,3.36
2019-01-25T13:08:16.344Z,3.35
2019-01-25T13:10:45.608Z,3.37
2019-01-25T13:13:13.673Z,3.39
2019-01-25T13:15:42.043Z,3.37
2019-01-25T13:18:10.128Z,3.39
2019-01-25T13:20:42.049Z,3.43
2019-01-25T13:23:10.283Z,3.46
2019-01-25T13:25:38.440Z,3.48
2019-01-25T13:28:06.607Z,3.47
2019-01-25T13:30:34.769Z,3.49
2019-01-25T13:33:03.040Z,3.53
2019-01-25T13:35:31.144Z,3.55
2019-01-25T13:37:59.242Z,3.59
2019-01-25T13:40:27.566Z,3.61
2019-01-25T13:42:55.744Z,3.59
2019-01-25T13:45:25.547Z,3.59
2019-01-25T13:47:53.851Z,3.62
2019-01-25T13:50:24.747Z,3.64
2019-01-25T13:52:52.800Z,3.66
2019-01-25T13:55:21.113Z,3.66
2019-01-25T13:57:49.258Z,3.65
2019-01-25T14:00:22.935Z,3.65
2019-01-25T14:02:52.244Z,3.68
2019-01-25T14:05:20.431Z,3.71
2019-01-25T14:07:48.523Z,3.74
2019-01-25T14:10:20.936Z,3.77
2019-01-25T14:12:49.270Z,3.79
2019-01-25T14:15:17.576Z,3.79
2019-01-25T14:17:45.619Z,3.80
2019-01-25T14:20:23.217Z,3.76
2019-01-25T14:22:47.190Z,3.74
2019-01-25T14:25:15.504Z,3.71
2019-01-25T14:27:43.852Z,3.70
2019-01-25T14:30:20.194Z,3.70
2019-01-25T14:32:48.234Z,3.69
2019-01-25T14:35:16.339Z,3.69
2019-01-25T14:37:44.400Z,3.68
2019-01-25T14:40:12.604Z,3.67
2019-01-25T14:42:40.895Z,3.67
2019-01-25T14:45:09.977Z,3.69
2019-01-25T14:47:38.079Z,3.70
2019-01-25T14:50:11.296Z,3.69
2019-01-25T14:52:39.365Z,3.68
2019-01-25T14:55:07.543Z,3.68
2019-01-25T14:57:35.577Z,3.69
2019-01-25T15:00:05.427Z,3.70
2019-01-25T15:02:34.472Z,3.69
2019-01-25T15:05:04.250Z,3.68
2019-01-25T15:07:32.306Z,3.65
2019-01-25T15:10:00.385Z,3.67
2019-01-25T15:12:28.417Z,3.65
2019-01-25T15:14:56.499Z,3.65
2019-01-25T15:17:24.560Z,3.64
2019-01-25T15:19:54.482Z,3.65
2019-01-25T15:22:22.633Z,3.65
2019-01-25T15:24:50.735Z,3.63
2019-01-25T15:27:19.100Z,3.62
2019-01-25T15:29:47.230Z,3.61
2019-01-25T15:32:15.439Z,3.60
2019-01-25T15:34:45.351Z,3.59
2019-01-25T15:37:14.688Z,3.58
2019-01-25T15:39:42.831Z,3.56
2019-01-25T15:42:11.091Z,3.55
2019-01-25T15:44:39.216Z,3.52
2019-01-25T15:47:07.661Z,3.50
2019-01-25T15:49:35.799Z,3.50
2019-01-25T15:52:04.389Z,3.47
2019-01-25T15:54:32.577Z,3.44
2019-01-25T15:57:00.697Z,3.41
2019-01-25T15:59:29.268Z,3.39
2019-01-25T16:01:57.352Z,3.38
2019-01-25T16:04:25.480Z,3.39
2019-01-25T16:06:53.830Z,3.37
2019-01-25T16:09:23.689Z,3.35
2019-01-25T16:11:51.897Z,3.37
2019-01-25T16:14:22.970Z,3.38
2019-01-25T16:16:52.213Z,3.38
2019-01-25T16:19:20.277Z,3.38
2019-01-25T16:21:48.365Z,3.37
2019-01-25T16:24:16.412Z,3.37
2019-01-25T16:26:44.716Z,3.36
2019-01-25T16:29:13.597Z,3.37
2019-01-25T16:31:43.950Z,3.36
2019-01-25T16:34:13.129Z,3.36
2019-01-25T16:36:41.277Z,3.36
2019-01-25T16:39:10.418Z,3.35
2019-01-25T16:41:38.552Z,3.33
2019-01-25T16:44:06.851Z,3.32
2019-01-25T16:46:35.125Z,3.32
2019-01-25T16:49:03.261Z,3.33
2019-01-25T16:51:31.380Z,3.32
2019-01-25T16:54:01.897Z,3.28
2019-01-25T16:56:30.009Z,3.27
2019-01-25T16:58:59.304Z,3.26
2019-01-25T17:01:28.580Z,3.24
2019-01-25T17:03:56.658Z,3.25
2019-01-25T17:06:24.746Z,3.21
2019-01-25T17:08:52.779Z,3.20
2019-01-25T17:11:22.897Z,3.19
2019-01-25T17:13:50.975Z,3.19
2019-01-25T17:16:19.279Z,3.17
2019-01-25T17:18:47.338Z,3.15
2019-01-25T17:21:15.444Z,3.15
2019-01-25T17:23:43.514Z,3.14
2019-01-25T17:26:11.637Z,3.14
2019-01-25T17:28:39.867Z,3.11
2019-01-25T17:31:08.118Z,3.13
2019-01-25T17:33:36.140Z,3.12
2019-01-25T17:36:04.241Z,3.12
2019-01-25T17:38:32.362Z,3.10
2019-01-25T17:41:00.672Z,3.09
2019-01-25T17:43:30.266Z,3.08
2019-01-25T17:45:58.485Z,3.09
2019-01-25T17:48:27.030Z,3.09
2019-01-25T17:50:55.171Z,3.10
2019-01-25T17:53:24.524Z,3.10
2019-01-25T17:55:52.973Z,3.08
2019-01-25T17:58:21.137Z,3.07
2019-01-25T18:00:52.864Z,3.06
2019-01-25T18:03:21.049Z,3.06
2019-01-25T18:05:49.186Z,3.05
2019-01-25T18:08:17.576Z,3.03
2019-01-25T18:10:45.753Z,3.04
2019-01-25T18:13:13.891Z,3.04
2019-01-25T18:15:43.002Z,3.05
2019-01-25T18:18:11.317Z,3.04
2019-01-25T18:20:40.497Z,3.05
2019-01-25T18:23:08.602Z,3.05
2019-01-25T18:25:53.636Z,3.05
2019-01-25T18:28:27.286Z,3.03
2019-01-25T18:31:02.012Z,3.03
2019-01-25T18:33:31.280Z,3.01
2019-01-25T18:35:59.631Z,3.01
2019-01-25T18:38:28.041Z,2.98
2019-01-25T18:40:56.298Z,2.97
2019-01-25T18:43:24.482Z,2.98
2019-01-25T19:35:20.728Z,2.81
2019-01-25T19:37:48.958Z,2.73
2019-01-25T19:40:18.674Z,2.73
2019-01-25T19:42:47.390Z,2.72
2019-01-25T19:45:25.163Z,2.71
2019-01-25T19:47:53.411Z,2.72
2019-01-25T19:50:21.818Z,2.71
2019-01-25T19:52:50.416Z,2.72
2019-01-25T19:55:23.809Z,2.73
2019-01-25T19:57:52.572Z,2.74
2019-01-25T20:00:38.865Z,2.74
2019-01-25T20:03:07.884Z,2.73
2019-01-25T20:05:49.573Z,2.74
2019-01-25T20:08:17.852Z,2.75
2019-01-25T20:10:46.307Z,2.76
2019-01-25T20:13:14.420Z,2.77
2019-01-25T20:15:42.453Z,2.77
2019-01-25T20:18:10.680Z,2.78
2019-01-25T20:20:39.003Z,2.80
2019-01-25T20:23:07.184Z,2.79
2019-01-25T20:25:35.237Z,2.80
2019-01-25T20:28:05.133Z,2.82
2019-01-25T20:30:33.318Z,2.83
2019-01-25T20:33:06.120Z,2.85
2019-01-25T20:35:41.843Z,2.83
2019-01-25T20:38:10.558Z,2.82
2019-01-25T20:40:38.811Z,2.80
2019-01-25T20:43:07.013Z,2.80
2019-01-25T20:45:37.486Z,2.79
2019-01-25T20:48:06.879Z,2.82
2019-01-25T20:50:35.465Z,2.83
2019-01-25T20:53:04.673Z,2.84
2019-01-25T20:55:32.826Z,2.84
2019-01-25T20:58:01.027Z,2.86
2019-01-25T21:00:34.733Z,2.87
2019-01-25T21:03:17.329Z,2.89
2019-01-25T21:05:46.375Z,2.90
2019-01-25T21:08:14.421Z,2.91
2019-01-25T21:10:42.402Z,2.93
2019-01-25T21:13:10.455Z,2.92
2019-01-25T21:15:39.593Z,2.91
2019-01-25T21:18:08.007Z,2.93
2019-01-25T21:20:40.930Z,2.94
2019-01-25T21:23:08.983Z,2.96
2019-01-25T21:25:37.189Z,2.96
2019-01-25T21:28:05.507Z,2.96
2019-01-25T21:30:34.716Z,2.96
2019-01-25T21:33:04.922Z,2.99
2019-01-25T21:35:32.913Z,3.00
2019-01-25T21:38:02.352Z,3.03
2019-01-25T21:40:32.541Z,3.05
2019-01-25T21:43:00.789Z,3.08
2019-01-25T21:45:32.044Z,3.10
2019-01-25T21:48:02.195Z,3.12
2019-01-25T21:50:35.617Z,3.15
2019-01-25T21:53:04.876Z,3.19
2019-01-25T21:55:32.943Z,3.23
2019-01-25T21:58:05.504Z,3.27
2019-01-25T22:00:31.963Z,3.32
2019-01-25T22:03:00.078Z,3.36
2019-01-25T22:05:28.394Z,3.41
2019-01-25T22:07:56.452Z,3.46
2019-01-25T22:10:34.162Z,3.50
2019-01-25T22:13:02.225Z,3.53
2019-01-25T22:15:32.050Z,3.56
2019-01-25T22:18:00.087Z,3.60
2019-01-25T22:20:29.285Z,3.62
2019-01-25T22:22:57.711Z,3.64
2019-01-25T22:25:25.751Z,3.66
2019-01-25T22:27:55.707Z,3.68
2019-01-25T22:30:25.101Z,3.72
2019-01-25T22:32:53.682Z,3.75
2019-01-25T22:35:21.699Z,3.77
2019-01-25T22:37:49.701Z,3.82
2019-01-25T22:40:29.696Z,3.86
2019-01-25T22:42:58.259Z,3.89
2019-01-25T22:45:29.663Z,3.92
2019-01-25T22:47:59.626Z,3.93
2019-01-25T22:50:30.755Z,3.96
2019-01-25T22:52:58.756Z,3.96
2019-01-25T22:55:28.272Z,3.98
2019-01-25T22:57:56.310Z,4.00
2019-01-25T23:01:01.598Z,4.00
2019-01-25T23:03:45.403Z,4.03
2019-01-25T23:06:47.813Z,4.05
2019-01-25T23:09:32.590Z,4.04
2019-01-25T23:12:00.564Z,4.04
2019-01-25T23:14:28.629Z,4.04
2019-01-25T23:16:56.750Z,4.07
2019-01-25T23:19:24.815Z,4.09
2019-01-25T23:21:52.828Z,4.11
2019-01-25T23:24:20.848Z,4.13
2019-01-25T23:26:49.847Z,4.14
2019-01-25T23:29:17.917Z,4.16
2019-01-25T23:31:45.920Z,4.16
2019-01-25T23:34:13.934Z,4.17
2019-01-25T23:36:41.959Z,4.17
2019-01-25T23:39:10.855Z,4.19
2019-01-25T23:41:38.850Z,4.18
2019-01-25T23:44:06.926Z,4.20
2019-01-25T23:46:34.908Z,4.22
2019-01-25T23:49:02.963Z,4.21
2019-01-25T23:51:30.996Z,4.23
2019-01-25T23:54:00.009Z,4.24
2019-01-25T23:56:28.020Z,4.23
2019-01-25T23:58:56.315Z,4.24
